Latest Weather Observations for Little Bay

IDN60801

Issued at 10:42 am EDT Friday 9 December 2022 (issued every 10 minutes, with the page automatically refreshed every 10 minutes)

About weather observations | Map of weather stations | Latest weather observations for NSW | Other Formats
Station Details ID: 066051 Name: LITTLE BAY (THE COAST GOLF CLUB) Lat: -33.98 Lon: 151.25 Height: 22.0 m
Data from the previous 72 hours. | See also: Recent months at Little Bay
Date/Time
EDT
Temp
°C
App
Temp
°C
Dew
Point
°C
Rel
Hum
%
Delta-T
°C
Wind Press
QNH
hPa
Press
MSL
hPa
Rain since
9am
mm
Dir  Spd
km/h
Gust
km/h
Spd
kts
Gust
kts
09/10:30am - - - - - S 19 26 10 14 - - -
09/10:00am - - - - - S 20 30 11 16 - - -
09/09:30am - - - - - SSE 19 28 10 15 - - -
09/09:00am - - - - - SSE 22 32 12 17 - - -
09/08:30am - - - - - S 24 32 13 17 - - -
09/08:00am - - - - - S 22 32 12 17 - - -
09/07:30am - - - - - S 20 32 11 17 - - -
09/07:00am - - - - - S 20 30 11 16 - - -
09/06:30am - - - - - SSE 24 33 13 18 - - -
09/06:00am - - - - - SSE 22 33 12 18 - - -
09/05:30am - - - - - S 22 33 12 18 - - -
09/05:00am - - - - - S 22 30 12 16 - - -
09/04:30am - - - - - S 24 37 13 20 - - -
09/04:00am - - - - - S 24 35 13 19 - - -
09/03:30am - - - - - SSE 28 39 15 21 - - -
09/03:00am - - - - - S 22 33 12 18 - - -
09/02:30am - - - - - SE 22 28 12 15 - - -
09/02:00am - - - - - S 20 28 11 15 - - -
09/01:30am - - - - - SE 17 22 9 12 - - -
09/01:00am - - - - - SE 19 26 10 14 - - -
09/12:30am - - - - - SSE 24 35 13 19 - - -
09/12:00am - - - - - S 11 20 6 11 - - -
 
Date/Time
EDT
Temp
°C
App
Temp
°C
Dew
Point
°C
Rel
Hum
%
Delta-T
°C
Wind Press
QNH
hPa
Press
MSL
hPa
Rain since
9am
mm
Dir  Spd
km/h
Gust
km/h
Spd
kts
Gust
kts
08/11:30pm - - - - - SSE 17 32 9 17 - - -
08/11:00pm - - - - - S 11 19 6 10 - - -
08/10:30pm - - - - - S 13 22 7 12 - - -
08/10:00pm - - - - - SSE 15 24 8 13 - - -
08/09:30pm - - - - - S 17 28 9 15 - - -
08/09:00pm - - - - - SSE 19 32 10 17 - - -
08/08:30pm - - - - - S 17 24 9 13 - - -
08/08:00pm - - - - - SSE 19 26 10 14 - - -
08/07:30pm - - - - - SSE 20 30 11 16 - - -
08/07:00pm - - - - - SSE 20 28 11 15 - - -
08/06:30pm - - - - - SSE 22 28 12 15 - - -
08/06:00pm - - - - - SSE 20 32 11 17 - - -
08/05:30pm - - - - - SSE 22 32 12 17 - - -
08/05:00pm - - - - - SSE 24 35 13 19 - - -
08/04:30pm - - - - - SSE 28 35 15 19 - - -
08/04:00pm - - - - - SSE 26 37 14 20 - - -
08/03:30pm - - - - - SSE 30 37 16 20 - - -
08/03:00pm - - - - - SSE 26 33 14 18 - - -
08/02:30pm - - - - - SSE 28 35 15 19 - - -
08/02:00pm - - - - - SSE 26 32 14 17 - - -
08/01:30pm - - - - - SE 26 35 14 19 - - -
08/01:00pm - - - - - SE 26 30 14 16 - - -
08/12:30pm - - - - - SSE 26 33 14 18 - - -
08/12:00pm - - - - - SSE 28 35 15 19 - - -
08/11:30am - - - - - SSE 24 32 13 17 - - -
08/11:00am - - - - - SSE 22 32 12 17 - - -
08/10:30am - - - - - SSE 26 33 14 18 - - -
08/10:00am - - - - - S 22 32 12 17 - - -
08/09:30am - - - - - S 26 35 14 19 - - -
08/09:00am - - - - - S 24 32 13 17 - - -
08/08:30am - - - - - SSW 22 32 12 17 - - -
08/08:00am - - - - - SSW 19 26 10 14 - - -
08/07:30am - - - - - SSW 19 28 10 15 - - -
08/07:00am - - - - - SSW 20 30 11 16 - - -
08/06:30am - - - - - SSW 19 26 10 14 - - -
08/06:00am - - - - - SW 9 13 5 7 - - -
08/05:30am - - - - - WSW 11 15 6 8 - - -
08/05:00am - - - - - WSW 13 20 7 11 - - -
08/04:30am - - - - - SW 11 19 6 10 - - -
08/04:00am - - - - - S 4 6 2 3 - - -
08/03:30am - - - - - WSW 6 7 3 4 - - -
08/03:00am - - - - - WNW 6 13 3 7 - - -
08/02:30am - - - - - W 7 13 4 7 - - -
08/02:00am - - - - - WNW 11 19 6 10 - - -
08/01:30am - - - - - W 9 15 5 8 - - -
08/01:00am - - - - - W 11 19 6 10 - - -
08/12:30am - - - - - W 9 13 5 7 - - -
08/12:00am - - - - - W 11 17 6 9 - - -
 
Date/Time
EDT
Temp
°C
App
Temp
°C
Dew
Point
°C
Rel
Hum
%
Delta-T
°C
Wind Press
QNH
hPa
Press
MSL
hPa
Rain since
9am
mm
Dir  Spd
km/h
Gust
km/h
Spd
kts
Gust
kts
07/11:30pm - - - - - W 11 20 6 11 - - -
07/11:00pm - - - - - W 4 7 2 4 - - -
07/10:30pm - - - - - NW 7 15 4 8 - - -
07/10:00pm - - - - - NW 6 9 3 5 - - -
07/09:30pm - - - - - WNW 7 13 4 7 - - -
07/09:00pm - - - - - NW 7 15 4 8 - - -
07/08:30pm - - - - - NW 11 22 6 12 - - -
07/08:00pm - - - - - WNW 13 28 7 15 - - -
07/07:30pm - - - - - WNW 11 19 6 10 - - -
07/07:00pm - - - - - NW 13 24 7 13 - - -
07/06:30pm - - - - - NNW 9 20 5 11 - - -
07/06:00pm - - - - - NW 7 15 4 8 - - -
07/05:30pm - - - - - W 11 20 6 11 - - -
07/05:00pm - - - - - WNW 13 26 7 14 - - -
07/04:30pm - - - - - NE 7 17 4 9 - - -
07/04:00pm - - - - - NE 6 9 3 5 - - -
07/03:30pm - - - - - NNE 15 24 8 13 - - -
07/03:00pm - - - - - NNE 11 17 6 9 - - -
07/02:30pm - - - - - NNE 13 20 7 11 - - -
07/02:00pm - - - - - NNE 13 20 7 11 - - -
07/01:30pm - - - - - NNE 13 20 7 11 - - -
07/01:00pm - - - - - NNE 17 24 9 13 - - -
07/12:30pm - - - - - NNE 17 24 9 13 - - -
07/12:00pm - - - - - NNE 20 28 11 15 - - -
07/11:30am - - - - - NNE 19 24 10 13 - - -
07/11:00am - - - - - NE 19 22 10 12 - - -
07/10:30am - - - - - NE 20 26 11 14 - - -
07/10:00am - - - - - NNE 19 24 10 13 - - -
07/09:30am - - - - - NNE 17 24 9 13 - - -
07/09:00am - - - - - NE 15 22 8 12 - - -
07/08:30am - - - - - N 13 22 7 12 - - -
07/08:00am - - - - - NNE 13 20 7 11 - - -
07/07:30am - - - - - N 11 19 6 10 - - -
07/07:00am - - - - - N 9 13 5 7 - - -
07/06:30am - - - - - N 9 13 5 7 - - -
07/06:00am - - - - - N 7 11 4 6 - - -
07/05:30am - - - - - NNW 7 13 4 7 - - -
07/05:00am - - - - - NW 6 7 3 4 - - -
07/04:30am - - - - - NW 7 9 4 5 - - -
07/04:00am - - - - - NW 6 7 3 4 - - -
07/03:30am - - - - - NNW 6 7 3 4 - - -
07/03:00am - - - - - NNW 6 7 3 4 - - -
07/02:30am - - - - - CALM 0 0 0 0 - - -
07/02:00am - - - - - N 2 4 1 2 - - -
07/01:30am - - - - - NNE 4 7 2 4 - - -
07/01:00am - - - - - ENE 7 9 4 5 - - -
07/12:30am - - - - - E 11 13 6 7 - - -
07/12:00am - - - - - E 7 9 4 5 - - -
 
Date/Time
EDT
Temp
°C
App
Temp
°C
Dew
Point
°C
Rel
Hum
%
Delta-T
°C
Wind Press
QNH
hPa
Press
MSL
hPa
Rain since
9am
mm
Dir  Spd
km/h
Gust
km/h
Spd
kts
Gust
kts
06/11:30pm - - - - - E 4 7 2 4 - - -
06/11:00pm - - - - - ESE 7 9 4 5 - - -
06/10:30pm - - - - - ESE 9 11 5 6 - - -
06/10:00pm - - - - - ESE 9 13 5 7 - - -
06/09:30pm - - - - - ESE 9 13 5 7 - - -
06/09:00pm - - - - - ESE 9 15 5 8 - - -
06/08:30pm - - - - - SE 9 13 5 7 - - -
06/08:00pm - - - - - SSE 11 15 6 8 - - -
06/07:30pm - - - - - SSE 13 17 7 9 - - -
06/07:00pm - - - - - SSE 15 19 8 10 - - -
06/06:30pm - - - - - SSE 20 24 11 13 - - -
06/06:00pm - - - - - SSE 20 26 11 14 - - -
06/05:30pm - - - - - SE 20 26 11 14 - - -
06/05:00pm - - - - - SSE 24 28 13 15 - - -
06/04:30pm - - - - - SSE 24 30 13 16 - - -
06/04:00pm - - - - - SSE 24 30 13 16 - - -
06/03:30pm - - - - - SSE 26 35 14 19 - - -
06/03:00pm - - - - - SSE 26 32 14 17 - - -
06/02:30pm - - - - - SSE 26 33 14 18 - - -
06/02:00pm - - - - - SSE 24 33 13 18 - - -
06/01:30pm - - - - - SSE 22 28 12 15 - - -
06/01:00pm - - - - - SSE 24 32 13 17 - - -
06/12:30pm - - - - - SSE 22 30 12 16 - - -
06/12:00pm - - - - - SSE 20 26 11 14 - - -
06/11:30am - - - - - SSE 20 26 11 14 - - -
06/11:00am - - - - - SSE 19 24 10 13 - - -

Other formats

Comma delimited format used in spreadsheet applications
http://www.bom.gov.au/fwo/IDN60801/IDN60801.94780.axf

JavaScript Object Notation format (JSON) in row-major order
http://www.bom.gov.au/fwo/IDN60801/IDN60801.94780.json

Data quality

Most of these data are generated automatically and are frequently updated. Quality checks on data are not normally performed. It is possible for incorrect values to appear. Refer to information at About Latest Weather Observations and please check the disclaimer before using these data.